Troy, Michigan
Current Conditions -  °F | °C
As of 7:34 PM on Monday 22 Dec 2014 (Local Time) from KVLL Reporting Station
Overcast Overcast  
Wind Chill: 30°   Ceiling: 6500
Heat Index: 36°   Visibility: 7mi
Dew Point: 31°   Wind: 7mph
Humidity: 84%   Direction: 70°ENE
Pressure: 29.95"   Gusts: NA
Location:  42.56°N, 83.15°W
Report Text: KVLL 230034Z AUTO 07006KT 7SM OVC065 02/00 A2995 RMK AO2 T00201005
Loading
Personal Weather Stations






























Interactive Weather Map New forecast layout! Learn more

10-Day Weather Forecast

Advertisements
Track Severe Weather on mobile